Time,TemperatureF,DewpointF,PressureIn,WindDirection,WindDirectionDegrees,WindSpeedMPH,WindSpeedGustMPH,Humidity,HourlyPrecipIn,Conditions,Clouds,dailyrainin,SoftwareType,DateUTC
2013-07-28 00:00:00,65.6,63.8,18.34,NE,41,1.0,3.0,94,0.00,,,0.27,Wunderground v.1.15,2013-07-28 04:00:00,
2013-07-28 00:05:00,65.5,63.7,18.34,North,10,2.0,7.0,94,0.00,,,0.00,Wunderground v.1.15,2013-07-28 04:05:00,
2013-07-28 00:10:00,65.4,63.6,18.34,NNE,28,4.0,5.0,94,0.00,,,0.00,Wunderground v.1.15,2013-07-28 04:10:00,
2013-07-28 00:15:00,65.5,63.7,18.34,NE,53,5.0,5.0,94,0.00,,,0.01,Wunderground v.1.15,2013-07-28 04:15:00,
2013-07-28 00:20:00,65.5,63.7,18.34,NE,37,5.0,6.0,94,0.00,,,0.01,Wunderground v.1.15,2013-07-28 04:20:00,
2013-07-28 00:25:00,65.4,63.6,18.34,NNE,20,4.0,6.0,94,0.00,,,0.01,Wunderground v.1.15,2013-07-28 04:25:00,
2013-07-28 00:30:00,65.4,63.6,18.34,NE,56,3.0,9.0,94,0.00,,,0.01,Wunderground v.1.15,2013-07-28 04:30:00,
2013-07-28 00:35:00,65.4,63.6,18.34,NE,50,2.0,9.0,94,0.00,,,0.01,Wunderground v.1.15,2013-07-28 04:35:00,
2013-07-28 00:40:00,65.4,63.6,18.34,ENE,59,2.0,9.0,94,0.00,,,0.01,Wunderground v.1.15,2013-07-28 04:40:00,
2013-07-28 00:45:00,65.4,63.6,18.34,NE,45,3.0,9.0,94,0.00,,,0.01,Wunderground v.1.15,2013-07-28 04:45:00,
2013-07-28 00:50:00,65.3,63.5,18.34,NE,40,3.0,9.0,94,0.00,,,0.01,Wunderground v.1.15,2013-07-28 04:50:00,
2013-07-28 00:55:00,65.2,63.4,18.34,NNE,30,3.0,9.0,94,0.00,,,0.01,Wunderground v.1.15,2013-07-28 04:55:00,
2013-07-28 01:05:00,65.3,63.5,18.34,NE,45,4.0,6.0,94,0.00,,,0.01,Wunderground v.1.15,2013-07-28 05:05:00,
2013-07-28 01:10:00,65.3,63.5,18.34,North,353,4.0,8.0,94,0.00,,,0.01,Wunderground v.1.15,2013-07-28 05:10:00,
2013-07-28 01:20:00,65.2,63.4,18.34,NNE,17,3.0,3.0,94,0.00,,,0.01,Wunderground v.1.15,2013-07-28 05:20:00,
2013-07-28 01:25:00,65.1,63.3,18.34,North,8,2.0,3.0,94,0.00,,,0.01,Wunderground v.1.15,2013-07-28 05:25:00,
2013-07-28 01:30:00,65.0,63.2,18.34,NNE,12,2.0,5.0,94,0.00,,,0.01,Wunderground v.1.15,2013-07-28 05:30:00,
2013-07-28 01:35:00,64.9,63.1,18.34,NNE,12,2.0,11.0,94,0.00,,,0.01,Wunderground v.1.15,2013-07-28 05:35:00,
2013-07-28 01:40:00,64.8,63.0,18.34,NNE,13,2.0,2.0,94,0.00,,,0.01,Wunderground v.1.15,2013-07-28 05:40:00,
2013-07-28 01:45:00,64.8,63.0,18.34,NE,47,2.0,4.0,94,0.00,,,0.01,Wunderground v.1.15,2013-07-28 05:45:00,
2013-07-28 01:50:00,64.7,62.9,18.34,NNE,14,3.0,3.0,94,0.00,,,0.01,Wunderground v.1.15,2013-07-28 05:50:00,
2013-07-28 01:55:00,64.6,62.8,18.34,NNE,18,2.0,4.0,94,0.00,,,0.01,Wunderground v.1.15,2013-07-28 05:55:00,
2013-07-28 02:00:00,64.6,62.8,18.34,ENE,61,1.0,4.0,94,0.00,,,0.01,Wunderground v.1.15,2013-07-28 06:00:00,
2013-07-28 02:10:00,64.7,62.9,18.34,NNE,33,3.0,3.0,94,0.00,,,0.01,Wunderground v.1.15,2013-07-28 06:10:00,
2013-07-28 02:15:00,64.8,63.0,18.34,ENE,62,3.0,3.0,94,0.00,,,0.01,Wunderground v.1.15,2013-07-28 06:15:00,
2013-07-28 02:20:00,64.8,63.0,18.34,ENE,60,2.0,2.0,94,0.00,,,0.01,Wunderground v.1.15,2013-07-28 06:20:00,
2013-07-28 02:25:00,64.7,62.9,18.34,NNE,22,1.0,2.0,94,0.00,,,0.01,Wunderground v.1.15,2013-07-28 06:25:00,
2013-07-28 02:30:00,64.7,62.9,18.34,NNE,15,2.0,4.0,94,0.00,,,0.01,Wunderground v.1.15,2013-07-28 06:30:00,
2013-07-28 02:35:00,64.7,62.9,18.34,NNE,20,3.0,12.0,94,0.00,,,0.01,Wunderground v.1.15,2013-07-28 06:35:00,
2013-07-28 02:40:00,64.8,63.0,18.34,North,3,3.0,3.0,94,0.00,,,0.01,Wunderground v.1.15,2013-07-28 06:40:00,
2013-07-28 02:45:00,64.9,63.1,18.34,NNE,29,2.0,5.0,94,0.00,,,0.01,Wunderground v.1.15,2013-07-28 06:45:00,
2013-07-28 02:55:00,65.0,63.2,18.34,NNE,20,1.0,12.0,94,0.00,,,0.01,Wunderground v.1.15,2013-07-28 06:55:00,
2013-07-28 03:00:00,65.0,63.2,18.34,NE,54,2.0,4.0,94,0.00,,,0.01,Wunderground v.1.15,2013-07-28 07:00:00,
2013-07-28 03:10:00,65.0,63.2,18.34,NE,40,3.0,3.0,94,0.00,,,0.01,Wunderground v.1.15,2013-07-28 07:10:00,
2013-07-28 03:15:00,65.0,63.2,18.34,NE,41,2.0,3.0,94,0.00,,,0.01,Wunderground v.1.15,2013-07-28 07:15:00,
2013-07-28 03:20:00,65.0,63.2,18.34,NNE,20,2.0,4.0,94,0.00,,,0.01,Wunderground v.1.15,2013-07-28 07:20:00,
2013-07-28 03:25:00,65.0,63.2,18.34,NNE,20,1.0,4.0,94,0.00,,,0.01,Wunderground v.1.15,2013-07-28 07:25:00,
2013-07-28 03:30:00,65.0,63.2,18.34,NE,37,2.0,4.0,94,0.00,,,0.01,Wunderground v.1.15,2013-07-28 07:30:00,
2013-07-28 03:35:00,65.0,63.2,18.34,ENE,60,2.0,11.0,94,0.00,,,0.01,Wunderground v.1.15,2013-07-28 07:35:00,
2013-07-28 03:40:00,65.0,63.2,18.34,NE,46,3.0,3.0,94,0.00,,,0.01,Wunderground v.1.15,2013-07-28 07:40:00,
2013-07-28 03:50:00,65.0,63.2,18.34,NE,38,1.0,1.0,94,0.00,,,0.01,Wunderground v.1.15,2013-07-28 07:50:00,
2013-07-28 03:55:00,65.0,63.2,18.34,NE,42,1.0,11.0,94,0.00,,,0.01,Wunderground v.1.15,2013-07-28 07:55:00,
2013-07-28 04:00:00,65.0,63.2,18.34,NE,42,1.0,4.0,94,0.00,,,0.01,Wunderground v.1.15,2013-07-28 08:00:00,
2013-07-28 04:10:00,65.1,63.3,18.34,ENE,59,3.0,3.0,94,0.00,,,0.01,Wunderground v.1.15,2013-07-28 08:10:00,
2013-07-28 04:15:00,65.2,63.4,18.34,NE,38,4.0,4.0,94,0.00,,,0.01,Wunderground v.1.15,2013-07-28 08:15:00,
2013-07-28 04:20:00,65.3,63.5,18.34,NE,45,5.0,7.0,94,0.00,,,0.01,Wunderground v.1.15,2013-07-28 08:20:00,
2013-07-28 04:25:00,65.4,63.6,18.34,NE,55,5.0,7.0,94,0.00,,,0.01,Wunderground v.1.15,2013-07-28 08:25:00,
2013-07-28 04:35:00,65.3,63.5,18.34,NE,51,3.0,10.0,94,0.00,,,0.01,Wunderground v.1.15,2013-07-28 08:35:00,
2013-07-28 04:40:00,65.3,63.5,18.34,NE,45,2.0,2.0,94,0.00,,,0.01,Wunderground v.1.15,2013-07-28 08:40:00,
2013-07-28 04:45:00,65.2,63.4,18.34,NE,44,1.0,10.0,94,0.00,,,0.01,Wunderground v.1.15,2013-07-28 08:45:00,
2013-07-28 04:50:00,65.1,63.3,18.34,NNE,26,1.0,1.0,94,0.00,,,0.01,Wunderground v.1.15,2013-07-28 08:50:00,
2013-07-28 04:55:00,65.1,63.3,18.34,NNE,27,1.0,10.0,94,0.00,,,0.01,Wunderground v.1.15,2013-07-28 08:55:00,
2013-07-28 05:00:00,65.3,63.5,18.34,ENE,59,1.0,1.0,94,0.00,,,0.01,Wunderground v.1.15,2013-07-28 09:00:00,
2013-07-28 05:10:00,65.3,63.5,18.34,ENE,59,0.0,0.0,94,0.00,,,0.01,Wunderground v.1.15,2013-07-28 09:10:00,
2013-07-28 05:20:00,65.3,63.5,18.34,NE,48,1.0,1.0,94,0.00,,,0.01,Wunderground v.1.15,2013-07-28 09:20:00,
2013-07-28 05:25:00,65.4,63.6,18.34,NE,42,1.0,6.0,94,0.00,,,0.01,Wunderground v.1.15,2013-07-28 09:25:00,
2013-07-28 05:30:00,65.4,63.6,18.34,NNE,32,2.0,2.0,94,0.00,,,0.01,Wunderground v.1.15,2013-07-28 09:30:00,
2013-07-28 05:40:00,65.5,63.7,18.34,NE,51,4.0,4.0,94,0.00,,,0.02,Wunderground v.1.15,2013-07-28 09:40:00,
2013-07-28 05:45:00,65.5,63.7,18.34,NE,55,3.0,10.0,94,0.00,,,0.02,Wunderground v.1.15,2013-07-28 09:45:00,
2013-07-28 05:50:00,65.5,63.7,18.34,NNW,348,3.0,10.0,94,0.00,,,0.02,Wunderground v.1.15,2013-07-28 09:50:00,
2013-07-28 05:55:00,65.4,63.6,18.34,NNE,28,2.0,10.0,94,0.00,,,0.03,Wunderground v.1.15,2013-07-28 09:55:00,
2013-07-28 06:00:00,65.5,63.7,18.34,NNE,27,2.0,2.0,94,0.00,,,0.03,Wunderground v.1.15,2013-07-28 10:00:00,
2013-07-28 06:10:00,65.5,63.7,18.34,NE,36,1.0,1.0,94,0.00,,,0.03,Wunderground v.1.15,2013-07-28 10:10:00,
2013-07-28 06:15:00,65.4,63.6,18.34,NE,36,1.0,1.0,94,0.00,,,0.03,Wunderground v.1.15,2013-07-28 10:15:00,
2013-07-28 06:20:00,65.4,63.6,18.34,NE,41,1.0,1.0,94,0.00,,,0.03,Wunderground v.1.15,2013-07-28 10:20:00,
2013-07-28 06:25:00,65.5,63.7,18.34,ENE,74,2.0,2.0,94,0.00,,,0.03,Wunderground v.1.15,2013-07-28 10:25:00,
2013-07-28 06:30:00,65.5,63.7,18.34,ENE,74,1.0,1.0,94,0.00,,,0.03,Wunderground v.1.15,2013-07-28 10:30:00,
2013-07-28 06:35:00,65.5,63.7,18.34,NNE,22,1.0,3.0,94,0.00,,,0.03,Wunderground v.1.15,2013-07-28 10:35:00,
2013-07-28 06:45:00,65.8,64.0,18.34,ENE,61,2.0,5.0,94,0.00,,,0.03,Wunderground v.1.15,2013-07-28 10:45:00,
2013-07-28 06:50:00,65.8,64.0,18.34,ENE,60,3.0,3.0,94,0.00,,,0.03,Wunderground v.1.15,2013-07-28 10:50:00,
2013-07-28 06:55:00,65.7,63.9,18.34,NNE,12,2.0,4.0,94,0.00,,,0.03,Wunderground v.1.15,2013-07-28 10:55:00,
2013-07-28 07:00:00,65.7,63.9,18.34,NE,47,2.0,3.0,94,0.00,,,0.03,Wunderground v.1.15,2013-07-28 11:00:00,
2013-07-28 07:10:00,65.8,64.0,18.34,NE,46,1.0,1.0,94,0.00,,,0.03,Wunderground v.1.15,2013-07-28 11:10:00,
2013-07-28 07:20:00,65.8,64.0,18.34,NE,49,1.0,1.0,94,0.00,,,0.03,Wunderground v.1.15,2013-07-28 11:20:00,
2013-07-28 07:25:00,65.9,64.1,18.34,NE,48,1.0,1.0,94,0.00,,,0.03,Wunderground v.1.15,2013-07-28 11:25:00,
2013-07-28 07:30:00,66.0,64.2,18.34,NE,43,1.0,2.0,94,0.00,,,0.03,Wunderground v.1.15,2013-07-28 11:30:00,
2013-07-28 07:35:00,66.1,64.6,18.34,NE,53,2.0,3.0,95,0.00,,,0.03,Wunderground v.1.15,2013-07-28 11:35:00,
2013-07-28 07:40:00,66.3,64.5,18.34,NE,54,2.0,8.0,94,0.00,,,0.03,Wunderground v.1.15,2013-07-28 11:40:00,
2013-07-28 07:50:00,66.7,64.9,18.34,ENE,76,6.0,8.0,94,0.00,,,0.03,Wunderground v.1.15,2013-07-28 11:50:00,
2013-07-28 07:55:00,66.8,65.0,18.34,NE,55,7.0,8.0,94,0.00,,,0.03,Wunderground v.1.15,2013-07-28 11:55:00,
2013-07-28 08:00:00,66.9,65.1,18.34,NE,47,6.0,6.0,94,0.00,,,0.03,Wunderground v.1.15,2013-07-28 12:00:00,
2013-07-28 08:10:00,67.2,65.4,18.34,NE,48,5.0,8.0,94,0.00,,,0.03,Wunderground v.1.15,2013-07-28 12:10:00,
2013-07-28 08:15:00,67.2,65.4,18.34,East,88,6.0,8.0,94,0.00,,,0.03,Wunderground v.1.15,2013-07-28 12:15:00,
2013-07-28 08:25:00,67.2,65.4,18.34,ENE,77,7.0,7.0,94,0.00,,,0.03,Wunderground v.1.15,2013-07-28 12:25:00,
2013-07-28 08:30:00,67.2,65.4,18.34,ENE,71,6.0,6.0,94,0.00,,,0.03,Wunderground v.1.15,2013-07-28 12:30:00,
2013-07-28 08:40:00,67.3,65.5,18.34,ENE,78,7.0,9.0,94,0.00,,,0.03,Wunderground v.1.15,2013-07-28 12:40:00,
2013-07-28 08:45:00,67.4,65.6,18.34,East,85,6.0,9.0,94,0.00,,,0.03,Wunderground v.1.15,2013-07-28 12:45:00,
2013-07-28 08:55:00,67.4,65.6,18.34,East,87,5.0,8.0,94,0.00,,,0.03,Wunderground v.1.15,2013-07-28 12:55:00,
2013-07-28 09:00:00,67.3,65.5,18.34,ENE,78,5.0,5.0,94,0.00,,,0.03,Wunderground v.1.15,2013-07-28 13:00:00,
2013-07-28 09:10:00,67.3,65.5,18.34,ENE,74,5.0,5.0,94,0.00,,,0.03,Wunderground v.1.15,2013-07-28 13:10:00,
2013-07-28 09:15:00,67.2,65.4,18.34,ENE,71,6.0,6.0,94,0.00,,,0.03,Wunderground v.1.15,2013-07-28 13:15:00,
2013-07-28 09:25:00,67.2,65.4,18.34,ENE,77,5.0,6.0,94,0.00,,,0.04,Wunderground v.1.15,2013-07-28 13:25:00,
2013-07-28 09:30:00,67.2,65.4,18.34,ENE,74,4.0,4.0,94,0.00,,,0.04,Wunderground v.1.15,2013-07-28 13:30:00,
2013-07-28 09:35:00,67.2,65.4,18.34,NE,53,4.0,13.0,94,0.04,,,0.05,Wunderground v.1.15,2013-07-28 13:35:00,
2013-07-28 09:40:00,67.3,65.5,18.34,ENE,57,3.0,13.0,94,0.14,,,0.06,Wunderground v.1.15,2013-07-28 13:40:00,
2013-07-28 09:45:00,67.2,65.4,18.34,East,81,2.0,13.0,94,0.13,,,0.07,Wunderground v.1.15,2013-07-28 13:45:00,
2013-07-28 09:50:00,67.1,65.3,18.34,East,81,1.0,1.0,94,0.08,,,0.07,Wunderground v.1.15,2013-07-28 13:50:00,
2013-07-28 10:00:00,66.7,64.9,18.34,NE,48,2.0,7.0,94,0.07,,,0.08,Wunderground v.1.15,2013-07-28 14:00:00,
2013-07-28 10:10:00,66.6,64.8,18.34,NE,48,2.0,2.0,94,0.00,,,0.08,Wunderground v.1.15,2013-07-28 14:10:00,
2013-07-28 10:15:00,66.5,64.7,18.34,NE,48,0.0,2.0,94,0.00,,,0.09,Wunderground v.1.15,2013-07-28 14:15:00,
2013-07-28 10:20:00,66.7,64.9,18.34,NE,48,0.0,3.0,94,0.00,,,0.09,Wunderground v.1.15,2013-07-28 14:20:00,
2013-07-28 10:30:00,66.8,65.3,18.34,NNE,32,2.0,2.0,95,0.00,,,0.09,Wunderground v.1.15,2013-07-28 14:30:00,
2013-07-28 10:35:00,66.7,64.9,18.34,NNE,32,1.0,10.0,94,0.00,,,0.09,Wunderground v.1.15,2013-07-28 14:35:00,
2013-07-28 10:40:00,66.8,65.3,18.34,NNE,32,0.0,10.0,95,0.00,,,0.09,Wunderground v.1.15,2013-07-28 14:40:00,
2013-07-28 10:45:00,66.9,65.4,18.34,NE,38,1.0,10.0,95,0.00,,,0.09,Wunderground v.1.15,2013-07-28 14:45:00,
2013-07-28 10:50:00,66.9,65.1,18.34,NE,41,1.0,10.0,94,0.00,,,0.09,Wunderground v.1.15,2013-07-28 14:50:00,
2013-07-28 10:55:00,67.0,65.2,18.34,NE,45,1.0,10.0,94,0.00,,,0.09,Wunderground v.1.15,2013-07-28 14:55:00,
2013-07-28 11:00:00,67.0,65.2,18.34,ENE,74,1.0,5.0,94,0.00,,,0.09,Wunderground v.1.15,2013-07-28 15:00:00,
2013-07-28 11:10:00,67.0,65.2,18.34,ENE,75,4.0,5.0,94,0.00,,,0.10,Wunderground v.1.15,2013-07-28 15:10:00,
2013-07-28 11:15:00,66.8,65.0,18.34,ENE,76,4.0,5.0,94,0.19,,,0.11,Wunderground v.1.15,2013-07-28 15:15:00,
2013-07-28 11:20:00,66.8,65.0,18.34,East,82,3.0,3.0,94,0.17,,,0.12,Wunderground v.1.15,2013-07-28 15:20:00,
2013-07-28 11:25:00,66.6,64.8,18.34,East,85,4.0,4.0,94,0.08,,,0.13,Wunderground v.1.15,2013-07-28 15:25:00,
2013-07-28 11:35:00,66.5,64.7,18.34,ENE,67,4.0,6.0,94,0.25,,,0.16,Wunderground v.1.15,2013-07-28 15:35:00,
2013-07-28 11:40:00,66.3,64.5,18.34,ENE,78,4.0,7.0,94,0.14,,,0.17,Wunderground v.1.15,2013-07-28 15:40:00,
2013-07-28 11:50:00,65.7,63.9,18.34,ENE,67,5.0,7.0,94,0.09,,,0.18,Wunderground v.1.15,2013-07-28 15:50:00,
2013-07-28 11:55:00,65.4,63.6,18.34,NE,47,5.0,7.0,94,0.05,,,0.18,Wunderground v.1.15,2013-07-28 15:55:00,
2013-07-28 12:00:00,65.2,63.4,18.34,NE,51,5.0,5.0,94,0.00,,,0.18,Wunderground v.1.15,2013-07-28 16:00:00,
2013-07-28 12:10:00,65.3,63.5,18.34,ENE,61,5.0,5.0,94,0.00,,,0.19,Wunderground v.1.15,2013-07-28 16:10:00,
2013-07-28 12:15:00,65.4,63.9,18.34,ENE,61,3.0,5.0,95,0.10,,,0.20,Wunderground v.1.15,2013-07-28 16:15:00,
2013-07-28 12:20:00,65.4,63.9,18.34,ENE,61,1.0,1.0,95,0.06,,,0.20,Wunderground v.1.15,2013-07-28 16:20:00,
2013-07-28 12:25:00,65.5,64.0,18.34,ENE,61,1.0,1.0,95,0.04,,,0.20,Wunderground v.1.15,2013-07-28 16:25:00,
2013-07-28 12:30:00,65.8,64.3,18.34,ENE,61,2.0,2.0,95,0.00,,,0.20,Wunderground v.1.15,2013-07-28 16:30:00,
2013-07-28 12:35:00,66.0,64.2,18.34,ENE,65,1.0,4.0,94,0.00,,,0.20,Wunderground v.1.15,2013-07-28 16:35:00,
2013-07-28 12:40:00,65.9,64.1,18.34,ENE,65,2.0,8.0,94,0.00,,,0.20,Wunderground v.1.15,2013-07-28 16:40:00,
2013-07-28 12:45:00,65.7,64.2,18.34,ENE,65,3.0,8.0,95,0.00,,,0.20,Wunderground v.1.15,2013-07-28 16:45:00,
2013-07-28 12:50:00,65.7,64.2,18.34,ENE,74,2.0,8.0,95,0.00,,,0.20,Wunderground v.1.15,2013-07-28 16:50:00,
2013-07-28 12:55:00,65.6,64.1,18.34,East,84,2.0,8.0,95,0.00,,,0.20,Wunderground v.1.15,2013-07-28 16:55:00,
2013-07-28 13:00:00,65.6,64.1,18.34,ENE,75,3.0,3.0,95,0.00,,,0.20,Wunderground v.1.15,2013-07-28 17:00:00,
2013-07-28 13:10:00,66.2,64.4,18.34,North,3,3.0,3.0,94,0.00,,,0.20,Wunderground v.1.15,2013-07-28 17:10:00,
2013-07-28 13:15:00,66.2,64.4,18.34,NNE,26,3.0,3.0,94,0.00,,,0.20,Wunderground v.1.15,2013-07-28 17:15:00,
2013-07-28 13:20:00,66.6,64.8,18.34,NNE,20,2.0,2.0,94,0.00,,,0.20,Wunderground v.1.15,2013-07-28 17:20:00,
2013-07-28 13:25:00,66.7,64.9,18.34,NNE,28,2.0,5.0,94,0.00,,,0.20,Wunderground v.1.15,2013-07-28 17:25:00,
2013-07-28 13:30:00,66.8,65.0,18.34,NNE,32,2.0,2.0,94,0.00,,,0.20,Wunderground v.1.15,2013-07-28 17:30:00,
2013-07-28 13:35:00,66.9,64.8,18.34,NNE,28,1.0,9.0,93,0.00,,,0.20,Wunderground v.1.15,2013-07-28 17:35:00,
2013-07-28 13:45:00,67.5,65.4,18.34,NNE,30,0.0,9.0,93,0.00,,,0.20,Wunderground v.1.15,2013-07-28 17:45:00,
2013-07-28 13:50:00,68.1,65.7,18.34,NNE,31,0.0,9.0,92,0.00,,,0.20,Wunderground v.1.15,2013-07-28 17:50:00,
2013-07-28 13:55:00,68.5,66.1,18.34,NNE,30,0.0,9.0,92,0.00,,,0.20,Wunderground v.1.15,2013-07-28 17:55:00,
2013-07-28 14:00:00,69.3,66.2,18.34,NNE,31,0.0,0.0,90,0.00,,,0.20,Wunderground v.1.15,2013-07-28 18:00:00,
2013-07-28 14:10:00,70.1,66.0,18.34,ENE,74,2.0,4.0,87,0.00,,,0.20,Wunderground v.1.15,2013-07-28 18:10:00,
2013-07-28 14:15:00,70.4,66.0,18.34,ENE,76,2.0,4.0,86,0.00,,,0.20,Wunderground v.1.15,2013-07-28 18:15:00,
2013-07-28 14:20:00,70.5,65.4,18.34,East,80,1.0,4.0,84,0.00,,,0.20,Wunderground v.1.15,2013-07-28 18:20:00,
2013-07-28 14:25:00,70.8,65.7,18.34,ENE,76,2.0,5.0,84,0.00,,,0.20,Wunderground v.1.15,2013-07-28 18:25:00,
2013-07-28 14:30:00,70.8,65.4,18.34,NNE,21,3.0,3.0,83,0.00,,,0.20,Wunderground v.1.15,2013-07-28 18:30:00,
2013-07-28 14:35:00,70.8,65.4,18.34,NNE,21,2.0,7.0,83,0.00,,,0.20,Wunderground v.1.15,2013-07-28 18:35:00,
2013-07-28 14:40:00,71.1,65.3,18.34,NE,54,1.0,1.0,82,0.00,,,0.20,Wunderground v.1.15,2013-07-28 18:40:00,
2013-07-28 14:50:00,71.3,65.9,18.34,NNE,24,1.0,7.0,83,0.00,,,0.20,Wunderground v.1.15,2013-07-28 18:50:00,
2013-07-28 14:55:00,71.6,66.2,18.34,NE,56,3.0,7.0,83,0.00,,,0.20,Wunderground v.1.15,2013-07-28 18:55:00,
2013-07-28 15:00:00,71.6,65.8,18.34,ENE,73,2.0,3.0,82,0.00,,,0.20,Wunderground v.1.15,2013-07-28 19:00:00,
2013-07-28 15:10:00,72.1,64.9,18.34,ENE,58,2.0,2.0,78,0.00,,,0.20,Wunderground v.1.15,2013-07-28 19:10:00,
2013-07-28 15:15:00,72.1,64.5,18.34,East,84,3.0,3.0,77,0.00,,,0.20,Wunderground v.1.15,2013-07-28 19:15:00,
2013-07-28 15:20:00,72.0,64.4,18.34,ENE,78,2.0,2.0,77,0.00,,,0.20,Wunderground v.1.15,2013-07-28 19:20:00,
2013-07-28 15:25:00,72.1,65.2,18.34,East,81,2.0,3.0,79,0.00,,,0.20,Wunderground v.1.15,2013-07-28 19:25:00,
2013-07-28 15:30:00,72.3,65.1,18.34,ENE,74,2.0,2.0,78,0.00,,,0.20,Wunderground v.1.15,2013-07-28 19:30:00,
2013-07-28 15:35:00,72.4,65.2,18.34,North,353,1.0,8.0,78,0.00,,,0.20,Wunderground v.1.15,2013-07-28 19:35:00,
2013-07-28 15:40:00,72.6,65.3,18.34,North,353,1.0,1.0,78,0.00,,,0.20,Wunderground v.1.15,2013-07-28 19:40:00,
2013-07-28 15:45:00,72.5,64.9,18.34,East,90,2.0,4.0,77,0.00,,,0.20,Wunderground v.1.15,2013-07-28 19:45:00,
2013-07-28 15:55:00,72.5,65.2,18.34,ENE,70,2.0,8.0,78,0.00,,,0.20,Wunderground v.1.15,2013-07-28 19:55:00,
2013-07-28 16:00:00,72.1,64.1,18.34,East,81,2.0,2.0,76,0.00,,,0.20,Wunderground v.1.15,2013-07-28 20:00:00,
2013-07-28 16:10:00,71.8,64.9,18.34,ENE,74,2.0,3.0,79,0.00,,,0.20,Wunderground v.1.15,2013-07-28 20:10:00,
2013-07-28 16:15:00,71.6,65.1,18.34,East,82,3.0,4.0,80,0.00,,,0.20,Wunderground v.1.15,2013-07-28 20:15:00,
2013-07-28 16:25:00,71.1,64.6,18.34,East,88,2.0,6.0,80,0.00,,,0.20,Wunderground v.1.15,2013-07-28 20:25:00,
2013-07-28 16:30:00,71.1,64.3,18.34,East,88,1.0,1.0,79,0.00,,,0.20,Wunderground v.1.15,2013-07-28 20:30:00,
2013-07-28 16:35:00,71.1,64.6,18.34,ENE,76,0.0,3.0,80,0.00,,,0.20,Wunderground v.1.15,2013-07-28 20:35:00,
2013-07-28 16:40:00,71.1,65.3,18.34,ENE,70,1.0,1.0,82,0.00,,,0.20,Wunderground v.1.15,2013-07-28 20:40:00,
2013-07-28 16:45:00,71.2,65.8,18.34,ENE,70,1.0,9.0,83,0.00,,,0.20,Wunderground v.1.15,2013-07-28 20:45:00,
2013-07-28 16:50:00,71.3,65.9,18.34,ENE,61,1.0,9.0,83,0.00,,,0.20,Wunderground v.1.15,2013-07-28 20:50:00,
2013-07-28 16:55:00,71.4,66.0,18.34,ENE,61,1.0,9.0,83,0.00,,,0.20,Wunderground v.1.15,2013-07-28 20:55:00,
2013-07-28 17:00:00,71.6,65.5,18.34,NNE,22,1.0,6.0,81,0.00,,,0.20,Wunderground v.1.15,2013-07-28 21:00:00,
2013-07-28 17:10:00,72.0,65.8,18.34,NNE,26,1.0,1.0,81,0.00,,,0.20,Wunderground v.1.15,2013-07-28 21:10:00,
2013-07-28 17:15:00,72.2,66.0,18.34,NNE,28,1.0,1.0,81,0.00,,,0.20,Wunderground v.1.15,2013-07-28 21:15:00,
2013-07-28 17:20:00,72.4,66.2,18.34,NE,36,2.0,6.0,81,0.00,,,0.20,Wunderground v.1.15,2013-07-28 21:20:00,
2013-07-28 17:30:00,72.5,65.6,18.34,ENE,57,3.0,3.0,79,0.00,,,0.20,Wunderground v.1.15,2013-07-28 21:30:00,
2013-07-28 17:35:00,72.6,65.3,18.34,NE,40,3.0,6.0,78,0.00,,,0.20,Wunderground v.1.15,2013-07-28 21:35:00,
2013-07-28 17:40:00,72.4,64.8,18.34,ENE,59,2.0,7.0,77,0.00,,,0.20,Wunderground v.1.15,2013-07-28 21:40:00,
2013-07-28 17:45:00,72.2,65.0,18.34,ENE,59,1.0,7.0,78,0.00,,,0.20,Wunderground v.1.15,2013-07-28 21:45:00,
2013-07-28 17:50:00,71.7,64.5,18.34,ENE,58,0.0,7.0,78,0.00,,,0.20,Wunderground v.1.15,2013-07-28 21:50:00,
2013-07-28 17:55:00,71.4,64.5,18.34,ENE,58,0.0,7.0,79,0.00,,,0.20,Wunderground v.1.15,2013-07-28 21:55:00,
2013-07-28 18:00:00,71.1,64.3,18.34,ENE,58,0.0,0.0,79,0.00,,,0.20,Wunderground v.1.15,2013-07-28 22:00:00,
2013-07-28 18:10:00,71.2,64.7,18.34,ENE,58,0.0,0.0,80,0.00,,,0.20,Wunderground v.1.15,2013-07-28 22:10:00,
2013-07-28 18:15:00,71.3,64.8,18.34,ENE,58,0.0,0.0,80,0.00,,,0.20,Wunderground v.1.15,2013-07-28 22:15:00,
2013-07-28 18:20:00,71.6,65.8,18.34,SSW,203,0.0,0.0,82,0.00,,,0.20,Wunderground v.1.15,2013-07-28 22:20:00,
2013-07-28 18:25:00,71.3,65.9,18.34,SSW,202,0.0,2.0,83,0.00,,,0.20,Wunderground v.1.15,2013-07-28 22:25:00,
2013-07-28 18:30:00,70.6,65.5,18.34,South,178,1.0,1.0,84,0.00,,,0.20,Wunderground v.1.15,2013-07-28 22:30:00,
2013-07-28 18:35:00,69.9,65.2,18.34,South,178,1.0,8.0,85,0.00,,,0.20,Wunderground v.1.15,2013-07-28 22:35:00,
2013-07-28 18:40:00,69.4,65.4,18.34,South,180,0.0,8.0,87,0.00,,,0.20,Wunderground v.1.15,2013-07-28 22:40:00,
2013-07-28 18:45:00,68.8,64.8,18.34,South,180,1.0,8.0,87,0.00,,,0.21,Wunderground v.1.15,2013-07-28 22:45:00,
2013-07-28 18:50:00,68.2,64.5,18.34,South,189,0.0,8.0,88,0.13,,,0.22,Wunderground v.1.15,2013-07-28 22:50:00,
2013-07-28 18:55:00,67.6,64.2,18.34,SSW,195,0.0,8.0,89,0.12,,,0.23,Wunderground v.1.15,2013-07-28 22:55:00,
2013-07-28 19:00:00,67.2,64.2,18.34,WSW,240,1.0,5.0,90,0.06,,,0.23,Wunderground v.1.15,2013-07-28 23:00:00,
2013-07-28 19:10:00,66.6,63.9,18.34,WSW,253,1.0,1.0,91,0.00,,,0.23,Wunderground v.1.15,2013-07-28 23:10:00,
2013-07-28 19:15:00,66.6,64.2,18.34,WSW,250,1.0,1.0,92,0.00,,,0.23,Wunderground v.1.15,2013-07-28 23:15:00,
2013-07-28 19:20:00,66.7,64.3,18.34,WSW,251,0.0,0.0,92,0.00,,,0.23,Wunderground v.1.15,2013-07-28 23:20:00,
2013-07-28 19:25:00,66.3,63.9,18.34,WSW,252,0.0,0.0,92,0.00,,,0.23,Wunderground v.1.15,2013-07-28 23:25:00,
2013-07-28 19:35:00,65.9,63.5,18.34,WSW,255,1.0,5.0,92,0.00,,,0.23,Wunderground v.1.15,2013-07-28 23:35:00,
2013-07-28 19:40:00,65.3,62.9,18.34,WSW,254,2.0,2.0,92,0.00,,,0.23,Wunderground v.1.15,2013-07-28 23:40:00,
2013-07-28 19:45:00,65.1,62.7,18.34,WSW,249,2.0,7.0,92,0.00,,,0.23,Wunderground v.1.15,2013-07-28 23:45:00,
2013-07-28 19:50:00,64.8,62.4,18.34,WSW,253,2.0,7.0,92,0.00,,,0.23,Wunderground v.1.15,2013-07-28 23:50:00,
2013-07-28 20:00:00,64.3,62.2,18.34,WSW,256,2.0,2.0,93,0.00,,,0.23,Wunderground v.1.15,2013-07-29 00:00:00,
2013-07-28 20:10:00,63.5,61.4,18.34,West,259,3.0,3.0,93,0.00,,,0.23,Wunderground v.1.15,2013-07-29 00:10:00,
2013-07-28 20:15:00,63.2,61.1,18.34,West,261,4.0,4.0,93,0.00,,,0.23,Wunderground v.1.15,2013-07-29 00:15:00,
2013-07-28 20:20:00,63.1,61.0,18.34,WSW,240,2.0,2.0,93,0.00,,,0.23,Wunderground v.1.15,2013-07-29 00:20:00,
2013-07-28 20:25:00,62.7,60.9,18.34,WSW,242,4.0,4.0,94,0.67,,,0.28,Wunderground v.1.15,2013-07-29 00:25:00,
2013-07-28 20:30:00,62.4,60.7,18.34,South,178,4.0,4.0,94,0.19,,,0.30,Wunderground v.1.15,2013-07-29 00:30:00,
2013-07-28 20:35:00,62.4,60.7,18.34,South,173,1.0,7.0,94,0.07,,,0.30,Wunderground v.1.15,2013-07-29 00:35:00,
2013-07-28 20:40:00,62.2,60.5,18.34,WSW,251,1.0,7.0,94,0.05,,,0.30,Wunderground v.1.15,2013-07-29 00:40:00,
2013-07-28 20:50:00,62.0,60.3,18.34,South,187,0.0,7.0,94,0.00,,,0.30,Wunderground v.1.15,2013-07-29 00:50:00,
2013-07-28 20:55:00,62.0,60.3,18.34,South,187,0.0,7.0,94,0.00,,,0.30,Wunderground v.1.15,2013-07-29 00:55:00,
2013-07-28 21:00:00,62.0,60.3,18.34,South,189,0.0,2.0,94,0.00,,,0.30,Wunderground v.1.15,2013-07-29 01:00:00,
2013-07-28 21:10:00,61.7,60.0,18.34,SSW,213,0.0,0.0,94,0.00,,,0.30,Wunderground v.1.15,2013-07-29 01:10:00,
2013-07-28 21:20:00,61.2,59.5,18.34,SW,224,0.0,0.0,94,0.00,,,0.30,Wunderground v.1.15,2013-07-29 01:20:00,
2013-07-28 21:30:00,61.0,59.3,18.34,SW,232,0.0,0.0,94,0.00,,,0.30,Wunderground v.1.15,2013-07-29 01:30:00,
2013-07-28 21:35:00,60.8,59.1,18.34,WSW,237,0.0,13.0,94,0.00,,,0.30,Wunderground v.1.15,2013-07-29 01:35:00,
2013-07-28 21:40:00,60.6,58.9,18.34,WSW,242,1.0,13.0,94,0.00,,,0.30,Wunderground v.1.15,2013-07-29 01:40:00,
2013-07-28 21:45:00,60.5,58.8,18.34,WSW,254,3.0,13.0,94,0.00,,,0.30,Wunderground v.1.15,2013-07-29 01:45:00,
2013-07-28 21:55:00,60.7,59.0,18.34,West,263,2.0,13.0,94,0.00,,,0.30,Wunderground v.1.15,2013-07-29 01:55:00,
2013-07-28 22:00:00,60.9,59.2,18.34,NNW,342,1.0,2.0,94,0.00,,,0.30,Wunderground v.1.15,2013-07-29 02:00:00,
2013-07-28 22:10:00,60.6,58.9,18.34,NW,324,0.0,0.0,94,0.00,,,0.30,Wunderground v.1.15,2013-07-29 02:10:00,
2013-07-28 22:15:00,60.5,58.8,18.34,NW,324,0.0,0.0,94,0.00,,,0.30,Wunderground v.1.15,2013-07-29 02:15:00,
2013-07-28 22:25:00,60.4,58.7,18.34,NW,324,0.0,0.0,94,0.00,,,0.30,Wunderground v.1.15,2013-07-29 02:25:00,
2013-07-28 22:30:00,60.5,58.8,18.34,NW,322,0.0,0.0,94,0.00,,,0.30,Wunderground v.1.15,2013-07-29 02:30:00,
2013-07-28 22:35:00,60.5,58.8,18.34,NW,322,0.0,5.0,94,0.00,,,0.30,Wunderground v.1.15,2013-07-29 02:35:00,
2013-07-28 22:40:00,60.4,58.7,18.34,NW,322,0.0,5.0,94,0.00,,,0.30,Wunderground v.1.15,2013-07-29 02:40:00,
2013-07-28 22:45:00,60.2,58.5,18.34,NW,322,0.0,5.0,94,0.00,,,0.30,Wunderground v.1.15,2013-07-29 02:45:00,
2013-07-28 22:50:00,60.0,58.3,18.34,NW,322,0.0,5.0,94,0.00,,,0.30,Wunderground v.1.15,2013-07-29 02:50:00,
2013-07-28 23:00:00,59.5,57.8,18.34,NW,322,0.0,0.0,94,0.00,,,0.30,Wunderground v.1.15,2013-07-29 03:00:00,
2013-07-28 23:10:00,59.3,57.6,18.34,NW,322,0.0,0.0,94,0.00,,,0.30,Wunderground v.1.15,2013-07-29 03:10:00,
2013-07-28 23:20:00,59.3,57.6,18.34,WNW,295,1.0,1.0,94,0.00,,,0.30,Wunderground v.1.15,2013-07-29 03:20:00,
2013-07-28 23:25:00,59.3,57.6,18.34,WNW,295,0.0,1.0,94,0.00,,,0.30,Wunderground v.1.15,2013-07-29 03:25:00,
2013-07-28 23:30:00,59.2,57.5,18.34,WNW,295,0.0,0.0,94,0.00,,,0.30,Wunderground v.1.15,2013-07-29 03:30:00,
2013-07-28 23:35:00,59.2,57.5,18.34,WNW,295,0.0,4.0,94,0.00,,,0.30,Wunderground v.1.15,2013-07-29 03:35:00,
2013-07-28 23:45:00,58.9,57.2,18.34,WNW,295,0.0,4.0,94,0.00,,,0.30,Wunderground v.1.15,2013-07-29 03:45:00,
2013-07-28 23:50:00,58.7,57.0,18.34,WNW,295,0.0,4.0,94,0.00,,,0.30,Wunderground v.1.15,2013-07-29 03:50:00,